Time;durP1;ratioP1;P1;durP2;ratioP2;P2;SDS_P1;SDS_P2;PMS_P1;PMS_P2;Temp;Humidity;BMP_temperature;BMP_pressure;BME280_temperature;BME280_humidity;BME280_pressure;Samples;Min_cycle;Max_cycle;Signal;HPM_P1;HPM_P2
2023/11/09 00:00:27;;;;;;;92.57;82.70;;;;;;;8.66;92.68;95265.50;5030349;28;20458;-77
2023/11/09 00:02:55;;;;;;;77.03;69.70;;;;;;;8.68;92.74;95268.03;5030336;28;20460;-77
2023/11/09 00:05:22;;;;;;;72.73;66.43;;;;;;;8.71;92.74;95257.34;5030214;28;20445;-77
2023/11/09 00:07:49;;;;;;;75.23;68.53;;;;;;;8.78;93.45;95262.97;5030141;28;20774;-77
2023/11/09 00:10:17;;;;;;;76.23;69.47;;;;;;;8.78;92.96;95263.81;5030646;28;20554;-77
2023/11/09 00:12:48;;;;;;;58.80;53.87;;;;;;;8.78;92.29;95276.06;5030657;28;20445;-77
2023/11/09 00:15:15;;;;;;;61.37;56.27;;;;;;;8.73;92.68;95272.94;5030022;28;20449;-77
2023/11/09 00:17:43;;;;;;;61.37;55.87;;;;;;;8.73;91.86;95265.09;5030253;28;20442;-77
2023/11/09 00:20:11;;;;;;;58.83;54.03;;;;;;;8.74;91.55;95261.53;5030093;28;20444;-77
2023/11/09 00:22:38;;;;;;;49.13;45.90;;;;;;;8.76;91.17;95268.31;5030418;28;20476;-77
2023/11/09 00:25:06;;;;;;;56.10;51.80;;;;;;;8.71;90.75;95272.22;5029838;28;20986;-77
2023/11/09 00:27:33;;;;;;;50.53;46.73;;;;;;;8.70;90.87;95271.38;5030191;28;20496;-77
2023/11/09 00:30:00;;;;;;;45.37;42.47;;;;;;;8.60;90.87;95268.56;4995133;28;20488;-77
2023/11/09 00:32:27;;;;;;;52.70;48.87;;;;;;;8.60;91.79;95268.56;5030068;28;20451;-77
2023/11/09 00:34:55;;;;;;;51.00;47.30;;;;;;;8.54;91.35;95266.38;5030096;28;20438;-77
2023/11/09 00:37:23;;;;;;;53.70;49.80;;;;;;;8.59;91.53;95263.44;5029748;28;20444;-77
2023/11/09 00:39:50;;;;;;;39.27;36.60;;;;;;;8.56;91.06;95269.72;5029862;28;20943;-77
2023/11/09 00:42:16;;;;;;;47.87;44.67;;;;;;;8.61;91.35;95265.00;5029949;28;20468;-77
2023/11/09 00:44:43;;;;;;;48.50;45.03;;;;;;;8.69;91.63;95274.94;5029663;28;20457;-77
2023/11/09 00:47:10;;;;;;;46.47;43.40;;;;;;;8.74;91.92;95270.22;5029812;28;20464;-77
2023/11/09 00:49:37;;;;;;;36.53;34.47;;;;;;;8.84;90.57;95280.84;5029668;28;20525;-77
2023/11/09 00:52:05;;;;;;;28.23;26.60;;;;;;;8.91;89.98;95284.69;5029922;28;20452;-77
2023/11/09 00:54:32;;;;;;;28.83;27.17;;;;;;;9.04;90.13;95290.72;5029775;28;20476;-76
2023/11/09 00:56:59;;;;;;;20.60;19.57;;;;;;;9.12;89.64;95298.03;5029482;28;20948;-76
2023/11/09 00:59:26;;;;;;;17.07;16.17;;;;;;;9.18;89.78;95290.53;5029390;28;20927;-77
2023/11/09 01:01:53;;;;;;;14.37;13.57;;;;;;;9.25;88.21;95299.66;5029529;28;20816;-77
2023/11/09 01:04:20;;;;;;;12.87;12.17;;;;;;;9.24;87.62;95300.56;5029824;28;20442;-77
2023/11/09 01:06:47;;;;;;;10.10;9.60;;;;;;;9.27;88.20;95302.16;5030000;28;20445;-76
2023/11/09 01:09:17;;;;;;;10.13;9.33;;;;;;;9.18;88.55;95305.41;5029361;28;21013;-77
2023/11/09 01:11:45;;;;;;;9.37;8.77;;;;;;;9.16;88.93;95308.16;5029506;28;20446;-77
2023/11/09 01:14:11;;;;;;;9.37;8.53;;;;;;;9.13;88.89;95299.69;5029484;28;20481;-77
2023/11/09 01:16:38;;;;;;;7.30;6.90;;;;;;;9.13;88.46;95297.91;5029385;28;20443;-76
2023/11/09 01:19:05;;;;;;;6.87;6.47;;;;;;;9.06;89.35;95294.06;5030001;28;20445;-78
2023/11/09 01:21:32;;;;;;;7.57;7.00;;;;;;;8.97;90.40;95300.81;5029896;28;20441;-77
2023/11/09 01:23:58;;;;;;;9.53;8.53;;;;;;;8.87;90.44;95310.25;5029689;28;20452;-77
2023/11/09 01:26:27;;;;;;;12.07;9.43;;;;;;;8.87;91.07;95302.41;5029494;28;20456;-77
2023/11/09 01:28:53;;;;;;;12.33;11.17;;;;;;;8.83;90.85;95300.13;5032638;28;20437;-77
2023/11/09 01:31:22;;;;;;;8.80;8.27;;;;;;;8.85;91.37;95309.53;5033007;28;20438;-77
2023/11/09 01:33:49;;;;;;;11.83;9.73;;;;;;;8.83;91.66;95297.50;5032610;28;20486;-77
2023/11/09 01:36:16;;;;;;;8.80;8.30;;;;;;;8.85;91.51;95300.84;5032725;28;20456;-77
2023/11/09 01:38:43;;;;;;;9.37;8.40;;;;;;;8.85;91.17;95303.44;5032644;28;20851;-77
2023/11/09 01:41:10;;;;;;;8.97;8.00;;;;;;;8.83;91.44;95303.56;5032287;28;20532;-77
2023/11/09 01:43:39;;;;;;;7.00;6.40;;;;;;;8.78;91.81;95302.22;5032528;28;20928;-77
2023/11/09 01:46:07;;;;;;;8.27;6.30;;;;;;;8.80;91.56;95313.41;5032411;28;20434;-77
2023/11/09 01:48:35;;;;;;;7.77;7.17;;;;;;;8.71;91.64;95308.84;5032644;28;20445;-77
2023/11/09 01:51:03;;;;;;;6.13;5.33;;;;;;;8.69;91.69;95312.41;5032400;28;20563;-77
2023/11/09 01:53:31;;;;;;;6.40;5.90;;;;;;;8.60;91.92;95315.66;5013848;28;20468;-77
2023/11/09 01:55:57;;;;;;;7.03;6.57;;;;;;;8.52;92.03;95322.38;5032567;28;20472;-77
2023/11/09 01:58:24;;;;;;;7.67;7.20;;;;;;;8.48;92.67;95324.38;5013811;28;20457;-77
2023/11/09 02:00:54;;;;;;;7.60;7.10;;;;;;;8.42;92.46;95337.03;5032461;28;20438;-77
2023/11/09 02:03:22;;;;;;;8.70;8.00;;;;;;;8.25;92.95;95325.09;5032278;28;20518;-77
2023/11/09 02:05:49;;;;;;;9.00;8.40;;;;;;;8.10;94.20;95319.13;5013760;28;20451;-77
2023/11/09 02:08:18;;;;;;;7.53;6.80;;;;;;;8.12;94.49;95311.19;5083066;28;20448;-77
2023/11/09 02:10:44;;;;;;;8.50;7.77;;;;;;;8.00;94.01;95318.91;5031890;28;20484;-77
2023/11/09 02:13:11;;;;;;;10.37;9.57;;;;;;;8.06;94.92;95318.47;5032097;28;20444;-77
2023/11/09 02:15:38;;;;;;;8.30;7.73;;;;;;;8.16;94.44;95320.50;5032325;28;20452;-77
2023/11/09 02:18:06;;;;;;;6.07;5.57;;;;;;;8.24;93.73;95331.25;5032069;28;20502;-77
2023/11/09 02:20:33;;;;;;;6.73;6.13;;;;;;;8.26;93.48;95330.19;5032018;28;20453;-77
2023/11/09 02:23:02;;;;;;;7.00;6.27;;;;;;;8.26;93.08;95327.59;5031777;28;20932;-76
2023/11/09 02:25:31;;;;;;;7.10;6.50;;;;;;;8.16;92.81;95331.78;5032029;28;20891;-77
2023/11/09 02:27:57;;;;;;;5.73;5.33;;;;;;;8.22;92.88;95335.75;5013482;28;20451;-77
2023/11/09 02:30:24;;;;;;;7.87;7.17;;;;;;;8.10;92.83;95336.59;5031584;28;20489;-76
2023/11/09 02:32:51;;;;;;;5.57;5.17;;;;;;;8.15;92.77;95342.34;5031732;28;20450;-77
2023/11/09 02:35:19;;;;;;;6.10;5.57;;;;;;;8.10;93.69;95344.44;5031675;28;20453;-77
2023/11/09 02:37:45;;;;;;;5.30;4.90;;;;;;;8.07;93.76;95341.06;5031525;28;20452;-77
2023/11/09 02:40:13;;;;;;;7.87;7.17;;;;;;;8.08;93.27;95341.91;5031855;28;20923;-76
2023/11/09 02:42:41;;;;;;;8.43;5.83;;;;;;;8.10;92.65;95349.66;5031877;28;20449;-77
2023/11/09 02:45:08;;;;;;;6.07;5.67;;;;;;;8.06;92.22;95349.84;5031594;28;20942;-77
2023/11/09 02:47:35;;;;;;;8.37;6.47;;;;;;;8.06;91.77;95355.06;5031467;28;20452;-77
2023/11/09 02:50:03;;;;;;;6.80;6.30;;;;;;;8.01;92.12;95351.94;5031307;28;20489;-77
2023/11/09 02:52:31;;;;;;;7.20;6.50;;;;;;;7.95;92.12;95356.75;5031692;28;20483;-77
2023/11/09 02:55:00;;;;;;;8.17;6.43;;;;;;;7.90;92.18;95359.66;5031246;28;20574;-77
2023/11/09 02:57:29;;;;;;;10.60;7.30;;;;;;;7.92;93.54;95356.97;5031331;28;20965;-77
2023/11/09 02:59:57;;;;;;;6.67;6.07;;;;;;;7.85;92.69;95369.59;5031280;28;21027;-76
2023/11/09 03:02:24;;;;;;;5.27;4.80;;;;;;;7.87;93.05;95369.50;5031033;28;20453;-76
2023/11/09 03:04:51;;;;;;;7.10;5.70;;;;;;;7.82;92.47;95361.97;5030917;28;20439;-76
2023/11/09 03:07:18;;;;;;;7.23;6.57;;;;;;;7.77;91.76;95364.84;5031292;28;20445;-76
2023/11/09 03:09:45;;;;;;;9.80;9.07;;;;;;;7.70;93.08;95365.38;5031071;28;20483;-77
2023/11/09 03:12:12;;;;;;;12.40;11.30;;;;;;;7.73;93.98;95365.16;5031499;28;20467;-76
2023/11/09 03:14:39;;;;;;;10.57;10.07;;;;;;;7.74;93.63;95365.06;5031053;28;20483;-76
2023/11/09 03:17:09;;;;;;;13.23;12.40;;;;;;;7.78;93.59;95370.91;5031014;28;20471;-76
2023/11/09 03:19:36;;;;;;;11.00;10.50;;;;;;;7.79;93.16;95356.91;5031347;28;20451;-76
2023/11/09 03:22:03;;;;;;;16.80;16.03;;;;;;;7.78;92.99;95360.47;5030845;28;20444;-76
2023/11/09 03:24:32;;;;;;;17.93;17.00;;;;;;;7.74;92.68;95359.00;5031109;28;21184;-76
2023/11/09 03:26:59;;;;;;;23.80;22.43;;;;;;;7.70;92.81;95360.16;5031002;28;20448;-76
2023/11/09 03:29:25;;;;;;;17.93;16.93;;;;;;;7.71;93.78;95359.22;5030857;28;20436;-76
2023/11/09 03:31:52;;;;;;;20.30;19.23;;;;;;;7.71;93.22;95353.97;5030684;28;20456;-76
2023/11/09 03:34:20;;;;;;;21.13;20.10;;;;;;;7.76;92.90;95357.13;5030923;28;20930;-76
2023/11/09 03:36:47;;;;;;;18.33;17.23;;;;;;;7.80;92.41;95360.38;5030679;28;20445;-76
2023/11/09 03:39:14;;;;;;;19.60;18.60;;;;;;;7.78;92.86;95360.47;5030742;28;20444;-76
2023/11/09 03:41:46;;;;;;;17.40;16.40;;;;;;;7.73;92.24;95357.34;5030736;28;20481;-76
2023/11/09 03:44:12;;;;;;;21.30;20.30;;;;;;;7.67;92.33;95360.34;5030556;28;20483;-76
2023/11/09 03:46:39;;;;;;;25.70;24.30;;;;;;;7.64;92.92;95365.78;5030880;28;20451;-76
2023/11/09 03:49:07;;;;;;;35.60;33.60;;;;;;;7.59;92.97;95375.69;4995540;28;20445;-76
2023/11/09 03:51:35;;;;;;;61.57;56.27;;;;;;;7.61;92.70;95373.81;5030242;28;20483;-77
2023/11/09 03:54:03;;;;;;;183.97;105.87;;;;;;;7.62;92.00;95378.94;5030337;28;20480;-77
2023/11/09 03:56:29;;;;;;;306.10;111.80;;;;;;;7.60;91.62;95380.81;5030451;28;20446;-77
2023/11/09 03:58:56;;;;;;;345.63;126.47;;;;;;;7.56;92.03;95378.50;5030264;28;20451;-77
2023/11/09 04:01:23;;;;;;;426.77;123.30;;;;;;;7.56;92.01;95379.34;5030326;28;20470;-77
2023/11/09 04:03:51;;;;;;;458.67;129.23;;;;;;;7.57;91.89;95374.97;5030585;28;20441;-76
2023/11/09 04:06:17;;;;;;;476.90;138.77;;;;;;;7.57;92.16;95378.41;5030294;28;21007;-77
2023/11/09 04:08:46;;;;;;;479.47;131.07;;;;;;;7.54;91.88;95383.84;5030255;28;20450;-77
2023/11/09 04:11:12;;;;;;;514.53;138.87;;;;;;;7.59;91.82;95376.53;5080262;28;20483;-77
2023/11/09 04:13:39;;;;;;;517.37;135.17;;;;;;;7.60;91.55;95378.22;5030264;28;20496;-77
2023/11/09 04:16:08;;;;;;;515.70;128.40;;;;;;;7.59;91.36;95381.75;5030340;28;20495;-77
2023/11/09 04:18:36;;;;;;;513.17;135.37;;;;;;;7.52;91.75;95377.00;5030467;28;20481;-79
2023/11/09 04:21:03;;;;;;;520.87;132.37;;;;;;;7.49;91.56;95382.44;5030311;28;20457;-77
2023/11/09 04:23:30;;;;;;;522.60;139.20;;;;;;;7.43;91.77;95389.72;5011440;28;20457;-77
2023/11/09 04:25:58;;;;;;;514.20;131.40;;;;;;;7.39;91.36;95390.88;5029974;28;20447;-77
2023/11/09 04:28:25;;;;;;;500.23;135.00;;;;;;;7.35;91.48;95383.34;5030158;28;20444;-77
2023/11/09 04:30:52;;;;;;;509.40;129.27;;;;;;;7.32;91.33;95392.22;5029859;28;20487;-77
2023/11/09 04:33:19;;;;;;;508.13;126.97;;;;;;;7.32;91.11;95389.59;5097187;28;20455;-76
2023/11/09 04:35:46;;;;;;;493.20;125.40;;;;;;;7.28;90.99;95398.56;5029925;28;20542;-76
2023/11/09 04:38:15;;;;;;;509.80;142.47;;;;;;;7.24;90.96;95391.03;5029773;28;20496;-76
2023/11/09 04:40:43;;;;;;;493.53;142.77;;;;;;;7.17;91.34;95394.94;5030117;28;20456;-76
2023/11/09 04:43:12;;;;;;;509.90;133.43;;;;;;;7.20;91.54;95390.34;5030018;28;20443;-76
2023/11/09 04:45:42;;;;;;;515.17;134.27;;;;;;;7.23;91.08;95392.81;5029745;28;20440;-77
2023/11/09 04:48:19;;;;;;;512.97;128.50;;;;;;;7.20;91.00;95392.97;5025605;28;20547;-76
2023/11/09 04:50:52;;;;;;;515.97;138.90;;;;;;;7.18;91.21;95387.00;5075306;28;20518;-76
2023/11/09 04:53:30;;;;;;;513.30;132.00;;;;;;;7.16;91.77;95383.66;5029926;28;20444;-75
2023/11/09 04:56:04;;;;;;;517.37;137.03;;;;;;;7.17;91.40;95387.94;5029555;28;20484;-76
2023/11/09 04:58:47;;;;;;;513.67;134.63;;;;;;;7.15;91.73;95392.44;5029549;28;20851;-76
2023/11/09 05:06:52;;;;;;;512.10;129.33;;;;;;;7.06;91.77;95393.03;5032952;28;20464;-75
2023/11/09 05:09:21;;;;;;;513.17;134.40;;;;;;;7.02;91.42;95396.75;5033125;28;20485;-75
2023/11/09 05:11:48;;;;;;;523.40;138.87;;;;;;;7.04;91.74;95397.50;5032833;28;20522;-78
2023/11/09 05:14:17;;;;;;;526.07;137.67;;;;;;;7.03;91.34;95399.28;5033184;28;20448;-78
2023/11/09 05:16:44;;;;;;;529.17;141.90;;;;;;;7.01;91.81;95398.53;5032956;28;20445;-77
2023/11/09 05:19:12;;;;;;;519.90;132.50;;;;;;;6.95;91.77;95400.69;5032694;28;20439;-78
2023/11/09 05:21:39;;;;;;;519.42;130.57;;;;;;;6.92;91.71;95401.69;5032647;28;20453;-76
2023/11/09 05:24:06;;;;;;;518.25;131.18;;;;;;;6.91;92.28;95404.41;5032656;28;20219;-76
2023/11/09 05:26:36;;;;;;;501.43;138.17;;;;;;;6.94;91.90;95401.59;5032721;28;20212;-72
2023/11/09 05:29:05;;;;;;;523.33;136.65;;;;;;;6.92;92.23;95412.13;5032731;28;20451;-75
2023/11/09 05:31:35;;;;;;;517.15;127.47;;;;;;;6.96;91.89;95424.06;5032367;28;20227;-75
2023/11/09 05:34:03;;;;;;;520.70;130.53;;;;;;;7.15;93.24;95410.69;5032836;28;20200;-75
2023/11/09 05:36:33;;;;;;;94.97;27.97;;;;;;;7.82;91.67;95414.22;5032704;28;20452;-75
2023/11/09 05:39:00;;;;;;;504.97;149.47;;;;;;;8.68;89.88;95423.22;4998722;28;20440;-76
2023/11/09 05:41:29;;;;;;;472.37;154.80;;;;;;;9.48;84.79;95433.31;5032411;28;20456;-75
2023/11/09 05:43:56;;;;;;;374.30;152.60;;;;;;;10.36;79.74;95433.84;5032489;28;20473;-75
2023/11/09 05:46:22;;;;;;;318.43;181.80;;;;;;;11.29;75.11;95440.63;5083326;28;20449;-75
2023/11/09 05:48:51;;;;;;;502.23;222.33;;;;;;;11.95;70.56;95438.84;5032468;28;20448;-76
2023/11/09 05:51:21;;;;;;;551.27;225.23;;;;;;;12.14;69.26;95442.56;5082518;28;20582;-76
2023/11/09 05:53:49;;;;;;;534.87;212.67;;;;;;;12.05;69.62;95445.00;5032466;28;20460;-76
2023/11/09 05:56:16;;;;;;;535.07;216.23;;;;;;;12.02;69.49;95447.06;5032459;28;20468;-76
2023/11/09 05:58:43;;;;;;;533.90;213.57;;;;;;;11.87;69.62;95448.31;5032079;28;20479;-75
2023/11/09 06:01:11;;;;;;;536.37;213.33;;;;;;;11.79;69.89;95459.44;5032229;28;20465;-76
2023/11/09 06:03:38;;;;;;;542.90;225.20;;;;;;;11.75;69.95;95448.28;5032214;28;20525;-76
2023/11/09 06:06:07;;;;;;;540.57;217.93;;;;;;;11.73;70.57;95444.97;5032009;28;20546;-75
2023/11/09 06:08:35;;;;;;;534.97;201.33;;;;;;;11.68;69.97;95448.91;5032153;28;20447;-75
2023/11/09 06:11:03;;;;;;;536.97;208.43;;;;;;;11.57;70.48;95451.59;5013669;28;20526;-76
2023/11/09 06:13:29;;;;;;;538.50;219.63;;;;;;;11.45;71.52;95450.75;5031286;28;20479;-76
2023/11/09 06:15:57;;;;;;;536.90;205.60;;;;;;;11.29;71.97;95447.69;5032355;28;20456;-75
2023/11/09 06:18:24;;;;;;;537.30;206.93;;;;;;;11.20;72.40;95443.13;5031766;28;20444;-75
2023/11/09 06:20:53;;;;;;;544.67;229.50;;;;;;;11.26;73.43;95455.78;5032751;28;20492;-76
2023/11/09 06:23:22;;;;;;;542.20;219.27;;;;;;;11.33;72.61;95451.72;5031968;28;20548;-76
2023/11/09 06:25:51;;;;;;;541.20;219.00;;;;;;;11.38;72.91;95442.53;5031650;28;20446;-76
2023/11/09 06:28:19;;;;;;;540.57;213.17;;;;;;;11.47;71.68;95438.31;5031739;28;20442;-76
2023/11/09 06:30:46;;;;;;;540.60;209.43;;;;;;;11.50;72.08;95445.97;5031465;28;20922;-76
2023/11/09 06:33:12;;;;;;;540.13;220.87;;;;;;;11.61;70.77;95451.22;5031513;28;20439;-76
2023/11/09 06:35:40;;;;;;;546.10;226.97;;;;;;;11.65;71.54;95457.88;4996779;28;20455;-76
2023/11/09 06:38:08;;;;;;;550.83;250.70;;;;;;;11.71;70.92;95461.81;5031620;28;20467;-76
2023/11/09 06:40:36;;;;;;;544.40;223.77;;;;;;;11.82;71.65;95460.97;5031383;28;20971;-76
2023/11/09 06:43:03;;;;;;;548.17;238.27;;;;;;;11.88;72.22;95463.97;5031674;28;20444;-76
2023/11/09 06:45:31;;;;;;;547.03;223.97;;;;;;;12.00;71.34;95457.69;5031356;28;20443;-76
2023/11/09 06:47:58;;;;;;;548.57;238.00;;;;;;;11.98;70.41;95453.53;5031896;28;20833;-76
2023/11/09 06:50:24;;;;;;;551.23;233.60;;;;;;;12.08;70.36;95454.44;5031892;28;20868;-76
2023/11/09 06:52:55;;;;;;;549.23;243.20;;;;;;;12.10;70.54;95453.34;5031125;28;20439;-75
2023/11/09 06:55:22;;;;;;;548.97;242.93;;;;;;;12.17;69.91;95460.78;5098946;28;20999;-75
2023/11/09 06:57:53;;;;;;;549.57;237.97;;;;;;;12.13;70.48;95452.25;5031264;28;20864;-76
2023/11/09 07:00:23;;;;;;;560.77;283.67;;;;;;;12.18;70.34;95465.91;5030712;28;20448;-76
2023/11/09 07:02:51;;;;;;;560.07;262.93;;;;;;;12.25;70.50;95467.06;5030987;28;20531;-76
2023/11/09 07:05:19;;;;;;;557.40;255.97;;;;;;;12.18;70.36;95455.38;5030618;28;20460;-76
2023/11/09 07:07:47;;;;;;;557.47;260.70;;;;;;;12.17;70.17;95461.59;5030982;28;20455;-76
2023/11/09 07:10:15;;;;;;;554.83;261.33;;;;;;;12.06;71.54;95453.72;5031000;28;20441;-76
2023/11/09 07:12:42;;;;;;;554.17;243.63;;;;;;;12.00;72.14;95447.19;5029066;28;20553;-76
2023/11/09 07:15:13;;;;;;;561.73;254.07;;;;;;;11.90;72.37;95448.06;5030583;28;20471;-76
2023/11/09 07:17:40;;;;;;;565.20;254.97;;;;;;;11.76;73.06;95455.22;5030541;28;20624;-76
2023/11/09 07:20:10;;;;;;;553.20;235.57;;;;;;;11.56;73.84;95445.47;5030972;28;20810;-75
2023/11/09 07:22:37;;;;;;;547.77;213.57;;;;;;;11.12;75.33;95449.81;5030416;28;20538;-75
2023/11/09 07:25:04;;;;;;;556.43;226.37;;;;;;;10.98;76.12;95460.53;5029100;28;20448;-75
2023/11/09 07:27:31;;;;;;;550.77;214.50;;;;;;;10.79;76.77;95462.94;5011913;28;20442;-75
2023/11/09 07:30:00;;;;;;;549.23;214.07;;;;;;;10.75;78.88;95467.59;5030773;28;20443;-75
2023/11/09 07:32:28;;;;;;;551.10;211.03;;;;;;;10.71;78.37;95466.16;5030609;28;20482;-76
2023/11/09 07:34:55;;;;;;;550.50;211.73;;;;;;;10.69;80.24;95459.31;5030493;28;20446;-75
2023/11/09 07:37:23;;;;;;;553.93;209.20;;;;;;;10.49;79.92;95451.19;5030491;28;20443;-75
2023/11/09 07:39:52;;;;;;;547.17;196.57;;;;;;;10.51;79.79;95448.44;5030418;28;21009;-75
2023/11/09 07:42:19;;;;;;;545.57;200.20;;;;;;;10.43;80.59;95446.41;5030927;28;20461;-75
2023/11/09 07:44:48;;;;;;;546.87;195.97;;;;;;;10.29;81.08;95446.59;5030642;28;20442;-75
2023/11/09 07:47:20;;;;;;;543.47;195.37;;;;;;;10.21;81.46;95448.97;4995707;28;20441;-75
2023/11/09 07:49:50;;;;;;;548.73;209.07;;;;;;;10.27;81.57;95445.03;5030491;28;20439;-75
2023/11/09 07:52:17;;;;;;;550.20;211.20;;;;;;;10.29;82.13;95449.22;5030427;28;20508;-75
2023/11/09 07:54:44;;;;;;;557.10;207.37;;;;;;;10.23;82.45;95447.06;5030572;28;20535;-75
2023/11/09 07:57:14;;;;;;;546.37;188.77;;;;;;;10.26;81.43;95446.81;5030327;28;20932;-75
2023/11/09 07:59:44;;;;;;;549.97;214.77;;;;;;;10.30;82.24;95450.88;5030279;28;20473;-75
2023/11/09 08:02:14;;;;;;;547.70;194.30;;;;;;;10.28;81.98;95452.78;5030140;28;20444;-75
2023/11/09 08:04:41;;;;;;;548.30;199.47;;;;;;;10.26;81.62;95451.22;5030123;28;20444;-75
2023/11/09 08:07:10;;;;;;;547.33;195.07;;;;;;;10.29;80.84;95449.22;5030301;28;21021;-74
2023/11/09 08:09:37;;;;;;;552.87;211.17;;;;;;;10.38;79.71;95451.13;5030331;28;20469;-75
2023/11/09 08:12:05;;;;;;;557.50;211.03;;;;;;;10.45;79.67;95462.88;5030284;28;20549;-75
2023/11/09 08:14:32;;;;;;;553.20;205.93;;;;;;;10.60;79.84;95462.66;5030195;28;20449;-75
2023/11/09 08:16:59;;;;;;;551.83;211.83;;;;;;;10.58;80.79;95459.31;5030461;28;20447;-75
2023/11/09 08:19:27;;;;;;;548.27;201.17;;;;;;;10.58;81.04;95460.13;5031061;28;20438;-75
2023/11/09 08:21:53;;;;;;;554.53;218.33;;;;;;;10.63;80.50;95450.13;5030064;28;20454;-76
2023/11/09 08:24:22;;;;;;;553.60;209.30;;;;;;;10.70;80.24;95458.41;5029749;28;20446;-76
2023/11/09 08:26:48;;;;;;;558.30;220.67;;;;;;;10.79;79.78;95463.75;5029882;28;20451;-76
2023/11/09 08:29:15;;;;;;;552.23;208.07;;;;;;;10.76;78.37;95464.00;5029753;28;20891;-76
2023/11/09 08:31:44;;;;;;;562.77;227.93;;;;;;;10.85;79.09;95458.03;5029532;28;20485;-76
2023/11/09 08:34:11;;;;;;;555.97;223.53;;;;;;;10.92;78.71;95463.66;5029833;28;20450;-76
2023/11/09 08:36:38;;;;;;;556.77;227.33;;;;;;;10.99;78.36;95461.41;5029348;28;20434;-76
2023/11/09 08:39:09;;;;;;;557.77;230.83;;;;;;;11.00;78.68;95455.19;5029691;28;20442;-76
2023/11/09 08:41:38;;;;;;;562.90;231.50;;;;;;;11.10;78.79;95459.59;5029578;28;20801;-76
2023/11/09 08:44:06;;;;;;;558.07;229.93;;;;;;;11.28;78.76;95464.41;5029551;28;20443;-76
2023/11/09 08:46:33;;;;;;;564.60;248.63;;;;;;;11.24;77.46;95453.25;5029738;28;20838;-76
2023/11/09 08:49:03;;;;;;;563.10;246.43;;;;;;;11.25;78.04;95454.09;5029765;28;20443;-76
2023/11/09 08:51:30;;;;;;;560.90;253.57;;;;;;;11.20;79.13;95456.25;5078906;28;20478;-76
2023/11/09 08:53:56;;;;;;;555.87;229.93;;;;;;;11.22;76.81;95449.91;5029276;28;20959;-75
2023/11/09 08:56:25;;;;;;;556.33;226.93;;;;;;;11.30;77.12;95447.56;5029575;28;20443;-76
2023/11/09 08:58:53;;;;;;;559.97;236.33;;;;;;;11.48;76.33;95445.25;5029432;28;20472;-76
2023/11/09 09:01:20;;;;;;;561.03;228.10;;;;;;;11.53;75.85;95437.00;5029742;28;20450;-76
2023/11/09 09:03:49;;;;;;;566.27;249.33;;;;;;;11.66;76.81;95438.53;5029740;28;20434;-76
2023/11/09 09:06:17;;;;;;;564.00;255.77;;;;;;;11.76;75.95;95444.72;5096995;28;20525;-76
2023/11/09 09:08:45;;;;;;;568.13;266.97;;;;;;;11.71;75.69;95436.34;5029370;28;20786;-76
2023/11/09 09:11:14;;;;;;;568.27;245.43;;;;;;;11.83;76.11;95444.25;5078808;28;20448;-76
2023/11/09 09:13:41;;;;;;;568.37;269.57;;;;;;;11.79;77.39;95447.13;5029271;28;20579;-76
2023/11/09 09:16:09;;;;;;;570.33;290.17;;;;;;;11.93;76.76;95434.66;5029605;28;20486;-76
2023/11/09 09:18:37;;;;;;;569.60;280.37;;;;;;;11.95;75.67;95440.63;5029723;28;20858;-76
2023/11/09 09:21:08;;;;;;;571.40;292.57;;;;;;;11.86;75.78;95444.03;5029346;28;20447;-76
2023/11/09 09:23:35;;;;;;;568.00;271.57;;;;;;;12.04;75.90;95440.72;5077749;28;20449;-76
2023/11/09 09:26:03;;;;;;;573.93;294.53;;;;;;;12.02;75.50;95444.41;4994256;28;20798;-76
2023/11/09 09:28:30;;;;;;;564.67;264.47;;;;;;;12.09;74.68;95437.69;5029066;28;20448;-76
2023/11/09 09:30:57;;;;;;;564.57;272.80;;;;;;;12.13;75.13;95438.28;5010752;28;20456;-75
2023/11/09 09:33:25;;;;;;;565.57;277.93;;;;;;;12.05;74.91;95437.13;5028928;28;20488;-76
2023/11/09 09:35:53;;;;;;;571.67;288.53;;;;;;;11.94;74.98;95441.59;5029124;28;20450;-76
2023/11/09 09:38:21;;;;;;;566.53;269.43;;;;;;;11.92;75.11;95435.63;5028988;28;20511;-76
2023/11/09 09:40:49;;;;;;;569.33;295.10;;;;;;;11.94;75.83;95442.44;5029104;28;20445;-76
2023/11/09 09:43:19;;;;;;;567.37;283.03;;;;;;;11.94;74.85;95434.53;5028932;28;20486;-76
2023/11/09 09:45:47;;;;;;;569.33;298.67;;;;;;;11.92;74.62;95436.47;5028804;28;20460;-76
2023/11/09 09:48:14;;;;;;;565.97;272.87;;;;;;;12.05;74.15;95434.47;5030227;28;20439;-76
2023/11/09 09:50:42;;;;;;;566.77;286.10;;;;;;;12.01;75.86;95426.97;5032078;28;20499;-76
2023/11/09 09:53:09;;;;;;;561.17;267.33;;;;;;;11.79;75.83;95423.44;5032140;28;20499;-76
2023/11/09 09:55:37;;;;;;;566.13;280.70;;;;;;;11.89;76.45;95412.22;5032137;28;20544;-76
2023/11/09 09:58:05;;;;;;;561.10;267.73;;;;;;;12.07;76.89;95410.69;5032353;28;20498;-76
2023/11/09 10:00:33;;;;;;;568.33;306.67;;;;;;;12.08;76.82;95404.47;5032187;28;20454;-76
2023/11/09 10:03:01;;;;;;;562.60;281.37;;;;;;;12.18;77.01;95396.66;5032057;28;20480;-76
2023/11/09 10:05:33;;;;;;;557.40;270.03;;;;;;;12.27;77.16;95401.97;5031887;28;20443;-76
2023/11/09 10:08:07;;;;;;;567.87;285.20;;;;;;;12.25;76.47;95398.66;5032257;28;20450;-76
2023/11/09 10:10:37;;;;;;;568.87;297.93;;;;;;;12.38;76.56;95395.81;5032131;28;20448;-76
2023/11/09 10:13:07;;;;;;;576.63;316.67;;;;;;;12.33;76.55;95396.19;5031815;28;20493;-76
2023/11/09 10:15:35;;;;;;;567.60;313.90;;;;;;;11.95;76.51;95390.66;5032087;28;20443;-76
2023/11/09 10:18:02;;;;;;;562.90;277.63;;;;;;;11.95;75.97;95390.66;5031857;28;20442;-76
2023/11/09 10:20:29;;;;;;;562.40;293.83;;;;;;;11.85;77.78;95392.34;5032144;28;20460;-76
2023/11/09 10:22:57;;;;;;;555.17;274.97;;;;;;;12.02;76.66;95382.13;5031707;28;20449;-76
2023/11/09 10:25:28;;;;;;;560.60;289.47;;;;;;;11.77;77.38;95387.69;5031809;28;20440;-76
2023/11/09 10:28:00;;;;;;;561.03;282.07;;;;;;;11.84;75.95;95374.91;5031917;28;20478;-76
2023/11/09 10:30:27;;;;;;;557.37;290.53;;;;;;;12.05;75.34;95381.03;5031477;28;20481;-76
2023/11/09 10:33:05;;;;;;;559.10;278.87;;;;;;;12.24;73.25;95381.19;5031624;28;20536;-76
2023/11/09 10:35:32;;;;;;;564.47;309.87;;;;;;;12.31;72.20;95374.44;5031575;28;20443;-76
2023/11/09 10:38:01;;;;;;;554.27;285.80;;;;;;;12.38;72.85;95374.75;5031678;28;20447;-76
2023/11/09 10:40:30;;;;;;;552.97;293.97;;;;;;;12.56;72.23;95377.66;5031420;28;20539;-76
2023/11/09 10:43:01;;;;;;;555.10;315.67;;;;;;;12.50;74.43;95372.91;5031312;28;20480;-76
2023/11/09 10:45:30;;;;;;;556.67;312.80;;;;;;;12.68;72.90;95369.53;5031574;28;20475;-76
2023/11/09 10:47:59;;;;;;;557.20;321.90;;;;;;;12.82;71.46;95371.00;5031492;28;20450;-76
2023/11/09 10:50:28;;;;;;;558.47;308.83;;;;;;;12.89;69.43;95374.75;5031997;28;20507;-76
2023/11/09 10:52:57;;;;;;;550.17;297.37;;;;;;;12.86;69.75;95372.41;5031230;28;20581;-75
2023/11/09 10:55:25;;;;;;;560.80;312.50;;;;;;;12.75;69.37;95383.03;5031942;28;20472;-76
2023/11/09 10:57:54;;;;;;;554.47;314.27;;;;;;;12.79;69.02;95373.06;5032005;28;20455;-76
2023/11/09 11:00:34;;;;;;;549.43;302.77;;;;;;;12.70;68.15;95374.66;5031410;28;20524;-76
2023/11/09 11:03:08;;;;;;;546.23;309.23;;;;;;;12.79;68.51;95371.25;5031508;28;20812;-75
2023/11/09 11:05:40;;;;;;;546.40;301.80;;;;;;;12.80;68.46;95362.38;5031570;28;20824;-75
2023/11/09 11:08:13;;;;;;;548.47;318.30;;;;;;;12.91;68.00;95369.34;5031436;28;20442;-75
2023/11/09 11:10:46;;;;;;;553.43;340.77;;;;;;;13.00;68.40;95365.91;5025426;28;20508;-75
2023/11/09 11:13:18;;;;;;;549.77;325.13;;;;;;;12.86;68.38;95367.13;5017649;28;20491;-75
2023/11/09 11:16:10;;;;;;;543.73;313.57;;;;;;;12.95;69.41;95366.31;5031297;28;20456;-75
2023/11/09 11:18:52;;;;;;;546.27;314.67;;;;;;;12.64;68.87;95365.50;5016424;28;20457;-75
2023/11/09 11:21:41;;;;;;;546.07;327.43;;;;;;;12.67;71.59;95353.84;5031375;28;20441;-74
2023/11/09 11:24:40;;;;;;;541.30;309.73;;;;;;;12.56;69.59;95359.22;5031266;28;20993;-75